sensor_id;sensor_type;location;lat;lon;timestamp;P1;durP1;ratioP1;P2;durP2;ratioP2
56581;SDS011;42463;52.214;21.238;2022-08-21T00:02:36;6.30;;;5.20;;
56581;SDS011;42463;52.214;21.238;2022-08-21T00:05:09;6.30;;;5.10;;
56581;SDS011;42463;52.214;21.238;2022-08-21T00:07:35;8.30;;;5.70;;
56581;SDS011;42463;52.214;21.238;2022-08-21T00:10:02;6.30;;;5.10;;
56581;SDS011;42463;52.214;21.238;2022-08-21T00:12:30;6.50;;;5.60;;
56581;SDS011;42463;52.214;21.238;2022-08-21T00:14:57;6.90;;;5.20;;
56581;SDS011;42463;52.214;21.238;2022-08-21T00:17:24;6.60;;;5.80;;
56581;SDS011;42463;52.214;21.238;2022-08-21T00:19:50;5.80;;;5.10;;
56581;SDS011;42463;52.214;21.238;2022-08-21T00:22:17;6.40;;;5.50;;
56581;SDS011;42463;52.214;21.238;2022-08-21T00:24:44;6.60;;;5.60;;
56581;SDS011;42463;52.214;21.238;2022-08-21T00:27:10;7.80;;;5.80;;
56581;SDS011;42463;52.214;21.238;2022-08-21T00:29:37;6.00;;;5.40;;
56581;SDS011;42463;52.214;21.238;2022-08-21T00:32:04;6.30;;;5.30;;
56581;SDS011;42463;52.214;21.238;2022-08-21T00:34:32;7.80;;;5.90;;
56581;SDS011;42463;52.214;21.238;2022-08-21T00:37:01;6.00;;;5.40;;
56581;SDS011;42463;52.214;21.238;2022-08-21T00:39:28;6.60;;;5.60;;
56581;SDS011;42463;52.214;21.238;2022-08-21T00:41:55;7.80;;;5.40;;
56581;SDS011;42463;52.214;21.238;2022-08-21T00:44:23;7.20;;;6.20;;
56581;SDS011;42463;52.214;21.238;2022-08-21T00:46:49;6.40;;;5.80;;
56581;SDS011;42463;52.214;21.238;2022-08-21T00:49:16;6.70;;;5.90;;
56581;SDS011;42463;52.214;21.238;2022-08-21T00:51:46;7.70;;;6.30;;
56581;SDS011;42463;52.214;21.238;2022-08-21T00:54:16;6.90;;;6.20;;
56581;SDS011;42463;52.214;21.238;2022-08-21T00:56:45;7.10;;;5.90;;
56581;SDS011;42463;52.214;21.238;2022-08-21T00:59:14;9.50;;;5.40;;
56581;SDS011;42463;52.214;21.238;2022-08-21T01:01:49;6.70;;;5.10;;
56581;SDS011;42463;52.214;21.238;2022-08-21T01:04:16;7.00;;;6.00;;
56581;SDS011;42463;52.214;21.238;2022-08-21T01:06:43;7.40;;;6.00;;
56581;SDS011;42463;52.214;21.238;2022-08-21T01:09:10;7.60;;;5.90;;
56581;SDS011;42463;52.214;21.238;2022-08-21T01:11:37;8.80;;;5.90;;
56581;SDS011;42463;52.214;21.238;2022-08-21T01:14:05;6.60;;;5.50;;
56581;SDS011;42463;52.214;21.238;2022-08-21T01:16:33;6.10;;;5.50;;
56581;SDS011;42463;52.214;21.238;2022-08-21T01:19:03;6.50;;;5.90;;
56581;SDS011;42463;52.214;21.238;2022-08-21T01:21:30;7.40;;;5.80;;
56581;SDS011;42463;52.214;21.238;2022-08-21T01:23:57;8.40;;;5.40;;
56581;SDS011;42463;52.214;21.238;2022-08-21T01:26:46;7.70;;;5.70;;
56581;SDS011;42463;52.214;21.238;2022-08-21T01:29:16;6.80;;;5.30;;
56581;SDS011;42463;52.214;21.238;2022-08-21T01:31:53;7.60;;;5.80;;
56581;SDS011;42463;52.214;21.238;2022-08-21T01:34:19;6.00;;;5.30;;
56581;SDS011;42463;52.214;21.238;2022-08-21T01:42:33;6.30;;;5.50;;
56581;SDS011;42463;52.214;21.238;2022-08-21T01:45:00;6.50;;;5.80;;
56581;SDS011;42463;52.214;21.238;2022-08-21T01:47:27;6.50;;;5.30;;
56581;SDS011;42463;52.214;21.238;2022-08-21T01:49:54;6.30;;;5.20;;
56581;SDS011;42463;52.214;21.238;2022-08-21T01:52:21;6.00;;;5.10;;
56581;SDS011;42463;52.214;21.238;2022-08-21T01:54:48;6.60;;;5.30;;
56581;SDS011;42463;52.214;21.238;2022-08-21T02:06:39;7.80;;;5.10;;
56581;SDS011;42463;52.214;21.238;2022-08-21T02:09:09;7.50;;;5.50;;
56581;SDS011;42463;52.214;21.238;2022-08-21T02:11:37;7.10;;;5.20;;
56581;SDS011;42463;52.214;21.238;2022-08-21T02:14:07;6.80;;;6.10;;
56581;SDS011;42463;52.214;21.238;2022-08-21T02:16:37;6.20;;;5.40;;
56581;SDS011;42463;52.214;21.238;2022-08-21T02:19:05;6.20;;;5.00;;
56581;SDS011;42463;52.214;21.238;2022-08-21T02:21:49;7.70;;;5.80;;
56581;SDS011;42463;52.214;21.238;2022-08-21T02:24:44;6.50;;;5.20;;
56581;SDS011;42463;52.214;21.238;2022-08-21T02:27:10;6.10;;;5.30;;
56581;SDS011;42463;52.214;21.238;2022-08-21T02:29:38;7.50;;;5.30;;
56581;SDS011;42463;52.214;21.238;2022-08-21T02:32:05;5.70;;;5.10;;
56581;SDS011;42463;52.214;21.238;2022-08-21T02:34:32;8.50;;;5.40;;
56581;SDS011;42463;52.214;21.238;2022-08-21T02:36:58;6.20;;;5.30;;
56581;SDS011;42463;52.214;21.238;2022-08-21T02:39:25;6.90;;;4.70;;
56581;SDS011;42463;52.214;21.238;2022-08-21T02:42:40;7.70;;;4.70;;
56581;SDS011;42463;52.214;21.238;2022-08-21T02:45:12;6.50;;;5.10;;
56581;SDS011;42463;52.214;21.238;2022-08-21T02:47:40;5.80;;;5.20;;
56581;SDS011;42463;52.214;21.238;2022-08-21T02:50:11;5.90;;;5.20;;
56581;SDS011;42463;52.214;21.238;2022-08-21T02:52:37;6.10;;;5.20;;
56581;SDS011;42463;52.214;21.238;2022-08-21T02:58:19;6.20;;;5.40;;
56581;SDS011;42463;52.214;21.238;2022-08-21T03:00:44;6.50;;;5.40;;
56581;SDS011;42463;52.214;21.238;2022-08-21T03:03:07;5.90;;;5.30;;
56581;SDS011;42463;52.214;21.238;2022-08-21T03:05:30;6.40;;;5.10;;
56581;SDS011;42463;52.214;21.238;2022-08-21T03:07:55;5.80;;;5.20;;
56581;SDS011;42463;52.214;21.238;2022-08-21T03:10:20;5.40;;;4.90;;
56581;SDS011;42463;52.214;21.238;2022-08-21T03:12:43;6.20;;;5.10;;
56581;SDS011;42463;52.214;21.238;2022-08-21T03:15:09;7.30;;;5.20;;
56581;SDS011;42463;52.214;21.238;2022-08-21T03:17:34;6.20;;;5.40;;
56581;SDS011;42463;52.214;21.238;2022-08-21T03:19:57;8.00;;;5.30;;
56581;SDS011;42463;52.214;21.238;2022-08-21T03:22:21;5.80;;;5.10;;
56581;SDS011;42463;52.214;21.238;2022-08-21T03:24:44;6.10;;;5.40;;
56581;SDS011;42463;52.214;21.238;2022-08-21T03:27:07;7.10;;;5.40;;
56581;SDS011;42463;52.214;21.238;2022-08-21T03:29:29;6.60;;;5.60;;
56581;SDS011;42463;52.214;21.238;2022-08-21T03:31:52;6.10;;;5.30;;
56581;SDS011;42463;52.214;21.238;2022-08-21T03:34:15;7.60;;;5.00;;
56581;SDS011;42463;52.214;21.238;2022-08-21T03:36:38;7.20;;;5.60;;
56581;SDS011;42463;52.214;21.238;2022-08-21T03:39:02;7.30;;;5.20;;
56581;SDS011;42463;52.214;21.238;2022-08-21T03:41:26;6.80;;;5.20;;
56581;SDS011;42463;52.214;21.238;2022-08-21T03:43:49;5.90;;;4.70;;
56581;SDS011;42463;52.214;21.238;2022-08-21T03:46:12;5.40;;;4.80;;
56581;SDS011;42463;52.214;21.238;2022-08-21T03:48:36;7.00;;;5.20;;
56581;SDS011;42463;52.214;21.238;2022-08-21T03:51:00;6.70;;;4.90;;
56581;SDS011;42463;52.214;21.238;2022-08-21T03:53:23;6.60;;;5.30;;
56581;SDS011;42463;52.214;21.238;2022-08-21T03:55:47;7.30;;;5.20;;
56581;SDS011;42463;52.214;21.238;2022-08-21T03:58:11;8.60;;;5.40;;
56581;SDS011;42463;52.214;21.238;2022-08-21T04:00:33;6.60;;;5.20;;
56581;SDS011;42463;52.214;21.238;2022-08-21T04:02:56;6.30;;;5.40;;
56581;SDS011;42463;52.214;21.238;2022-08-21T04:05:19;6.10;;;5.40;;
56581;SDS011;42463;52.214;21.238;2022-08-21T04:07:48;6.00;;;5.40;;
56581;SDS011;42463;52.214;21.238;2022-08-21T04:10:11;7.90;;;5.40;;
56581;SDS011;42463;52.214;21.238;2022-08-21T04:12:35;5.90;;;5.40;;
56581;SDS011;42463;52.214;21.238;2022-08-21T04:14:57;9.50;;;5.70;;
56581;SDS011;42463;52.214;21.238;2022-08-21T04:17:23;6.20;;;5.20;;
56581;SDS011;42463;52.214;21.238;2022-08-21T04:19:46;7.70;;;5.80;;
56581;SDS011;42463;52.214;21.238;2022-08-21T04:22:09;6.80;;;5.70;;
56581;SDS011;42463;52.214;21.238;2022-08-21T04:24:33;6.90;;;5.30;;
56581;SDS011;42463;52.214;21.238;2022-08-21T04:27:04;6.50;;;5.00;;
56581;SDS011;42463;52.214;21.238;2022-08-21T04:29:26;7.10;;;5.70;;
56581;SDS011;42463;52.214;21.238;2022-08-21T04:34:13;6.80;;;5.90;;
56581;SDS011;42463;52.214;21.238;2022-08-21T04:36:36;5.90;;;5.20;;
56581;SDS011;42463;52.214;21.238;2022-08-21T04:38:59;5.90;;;5.20;;
56581;SDS011;42463;52.214;21.238;2022-08-21T04:41:22;7.10;;;6.20;;
56581;SDS011;42463;52.214;21.238;2022-08-21T04:43:45;7.40;;;5.20;;
56581;SDS011;42463;52.214;21.238;2022-08-21T04:46:08;7.40;;;5.60;;
56581;SDS011;42463;52.214;21.238;2022-08-21T04:48:30;10.40;;;5.90;;
56581;SDS011;42463;52.214;21.238;2022-08-21T04:50:56;6.10;;;5.40;;
56581;SDS011;42463;52.214;21.238;2022-08-21T04:53:27;6.80;;;5.60;;
56581;SDS011;42463;52.214;21.238;2022-08-21T04:55:53;6.20;;;5.60;;
56581;SDS011;42463;52.214;21.238;2022-08-21T04:58:19;5.40;;;4.90;;
56581;SDS011;42463;52.214;21.238;2022-08-21T05:00:43;6.10;;;5.60;;
56581;SDS011;42463;52.214;21.238;2022-08-21T05:03:08;6.30;;;5.30;;
56581;SDS011;42463;52.214;21.238;2022-08-21T05:05:33;6.90;;;5.40;;
56581;SDS011;42463;52.214;21.238;2022-08-21T05:10:20;6.20;;;5.20;;
56581;SDS011;42463;52.214;21.238;2022-08-21T05:15:07;9.00;;;5.60;;
56581;SDS011;42463;52.214;21.238;2022-08-21T05:17:33;7.10;;;5.30;;
56581;SDS011;42463;52.214;21.238;2022-08-21T05:19:56;5.90;;;5.30;;
56581;SDS011;42463;52.214;21.238;2022-08-21T05:22:22;7.00;;;5.60;;
56581;SDS011;42463;52.214;21.238;2022-08-21T05:24:45;5.60;;;5.00;;
56581;SDS011;42463;52.214;21.238;2022-08-21T05:27:08;8.40;;;5.90;;
56581;SDS011;42463;52.214;21.238;2022-08-21T05:29:32;7.10;;;5.40;;
56581;SDS011;42463;52.214;21.238;2022-08-21T05:32:08;6.60;;;5.30;;
56581;SDS011;42463;52.214;21.238;2022-08-21T05:34:32;6.90;;;5.40;;
56581;SDS011;42463;52.214;21.238;2022-08-21T05:36:54;6.50;;;5.80;;
56581;SDS011;42463;52.214;21.238;2022-08-21T05:39:17;6.60;;;6.00;;
56581;SDS011;42463;52.214;21.238;2022-08-21T05:41:40;8.10;;;5.60;;
56581;SDS011;42463;52.214;21.238;2022-08-21T05:44:03;6.20;;;5.60;;
56581;SDS011;42463;52.214;21.238;2022-08-21T05:46:26;6.00;;;5.40;;
56581;SDS011;42463;52.214;21.238;2022-08-21T05:48:49;7.30;;;5.60;;
56581;SDS011;42463;52.214;21.238;2022-08-21T05:51:13;8.10;;;5.70;;
56581;SDS011;42463;52.214;21.238;2022-08-21T05:53:37;5.70;;;5.20;;
56581;SDS011;42463;52.214;21.238;2022-08-21T05:56:04;7.60;;;5.50;;
56581;SDS011;42463;52.214;21.238;2022-08-21T05:58:27;9.50;;;6.00;;
56581;SDS011;42463;52.214;21.238;2022-08-21T06:00:51;7.60;;;5.60;;
56581;SDS011;42463;52.214;21.238;2022-08-21T06:03:15;7.60;;;5.40;;
56581;SDS011;42463;52.214;21.238;2022-08-21T06:05:40;6.40;;;5.90;;
56581;SDS011;42463;52.214;21.238;2022-08-21T06:08:04;8.60;;;5.80;;
56581;SDS011;42463;52.214;21.238;2022-08-21T06:10:26;7.10;;;5.50;;
56581;SDS011;42463;52.214;21.238;2022-08-21T06:12:53;8.60;;;5.90;;
56581;SDS011;42463;52.214;21.238;2022-08-21T06:15:17;6.70;;;5.70;;
56581;SDS011;42463;52.214;21.238;2022-08-21T06:17:40;6.80;;;6.10;;
56581;SDS011;42463;52.214;21.238;2022-08-21T06:20:05;7.40;;;5.70;;
56581;SDS011;42463;52.214;21.238;2022-08-21T06:22:29;6.30;;;5.70;;
56581;SDS011;42463;52.214;21.238;2022-08-21T06:24:52;5.90;;;5.30;;
56581;SDS011;42463;52.214;21.238;2022-08-21T06:27:15;7.00;;;5.30;;
56581;SDS011;42463;52.214;21.238;2022-08-21T06:29:38;7.10;;;5.70;;
56581;SDS011;42463;52.214;21.238;2022-08-21T06:32:02;6.70;;;6.00;;
56581;SDS011;42463;52.214;21.238;2022-08-21T06:34:28;8.70;;;6.00;;
56581;SDS011;42463;52.214;21.238;2022-08-21T06:39:13;8.30;;;5.90;;
56581;SDS011;42463;52.214;21.238;2022-08-21T06:41:36;7.40;;;6.40;;
56581;SDS011;42463;52.214;21.238;2022-08-21T06:43:58;7.70;;;6.00;;
56581;SDS011;42463;52.214;21.238;2022-08-21T06:46:21;8.60;;;6.00;;
56581;SDS011;42463;52.214;21.238;2022-08-21T06:48:45;6.50;;;5.80;;
56581;SDS011;42463;52.214;21.238;2022-08-21T06:51:08;7.60;;;6.10;;
56581;SDS011;42463;52.214;21.238;2022-08-21T06:53:31;13.00;;;6.20;;
56581;SDS011;42463;52.214;21.238;2022-08-21T06:55:54;7.70;;;5.70;;
56581;SDS011;42463;52.214;21.238;2022-08-21T06:58:17;7.70;;;6.10;;
56581;SDS011;42463;52.214;21.238;2022-08-21T07:00:43;6.60;;;5.90;;
56581;SDS011;42463;52.214;21.238;2022-08-21T07:03:07;8.30;;;5.50;;
56581;SDS011;42463;52.214;21.238;2022-08-21T07:05:39;6.90;;;5.70;;
56581;SDS011;42463;52.214;21.238;2022-08-21T07:08:02;7.90;;;6.30;;
56581;SDS011;42463;52.214;21.238;2022-08-21T07:10:26;7.00;;;5.80;;
56581;SDS011;42463;52.214;21.238;2022-08-21T07:12:49;6.70;;;5.80;;
56581;SDS011;42463;52.214;21.238;2022-08-21T07:15:13;6.30;;;5.40;;
56581;SDS011;42463;52.214;21.238;2022-08-21T07:17:36;7.00;;;5.90;;
56581;SDS011;42463;52.214;21.238;2022-08-21T07:19:58;7.10;;;6.10;;
56581;SDS011;42463;52.214;21.238;2022-08-21T07:22:21;7.70;;;6.10;;
56581;SDS011;42463;52.214;21.238;2022-08-21T07:24:44;8.00;;;6.30;;
56581;SDS011;42463;52.214;21.238;2022-08-21T07:27:06;7.00;;;6.30;;
56581;SDS011;42463;52.214;21.238;2022-08-21T07:29:29;6.90;;;5.90;;
56581;SDS011;42463;52.214;21.238;2022-08-21T07:31:52;7.30;;;6.00;;
56581;SDS011;42463;52.214;21.238;2022-08-21T07:34:15;7.50;;;6.30;;
56581;SDS011;42463;52.214;21.238;2022-08-21T07:36:38;6.60;;;5.80;;
56581;SDS011;42463;52.214;21.238;2022-08-21T07:39:00;8.80;;;5.70;;
56581;SDS011;42463;52.214;21.238;2022-08-21T07:41:25;6.90;;;6.10;;
56581;SDS011;42463;52.214;21.238;2022-08-21T07:43:50;7.50;;;6.10;;
56581;SDS011;42463;52.214;21.238;2022-08-21T07:46:13;7.50;;;5.70;;
56581;SDS011;42463;52.214;21.238;2022-08-21T07:48:36;7.10;;;6.30;;
56581;SDS011;42463;52.214;21.238;2022-08-21T07:51:00;7.10;;;5.70;;
56581;SDS011;42463;52.214;21.238;2022-08-21T07:53:27;6.50;;;5.90;;
56581;SDS011;42463;52.214;21.238;2022-08-21T07:55:50;6.50;;;5.80;;
56581;SDS011;42463;52.214;21.238;2022-08-21T07:58:13;6.40;;;5.80;;
56581;SDS011;42463;52.214;21.238;2022-08-21T08:00:36;11.40;;;5.90;;
56581;SDS011;42463;52.214;21.238;2022-08-21T08:02:59;6.80;;;6.10;;
56581;SDS011;42463;52.214;21.238;2022-08-21T08:05:26;6.40;;;5.70;;
56581;SDS011;42463;52.214;21.238;2022-08-21T08:07:51;6.10;;;5.40;;
56581;SDS011;42463;52.214;21.238;2022-08-21T08:10:14;9.10;;;6.00;;
56581;SDS011;42463;52.214;21.238;2022-08-21T08:12:40;6.90;;;6.20;;
56581;SDS011;42463;52.214;21.238;2022-08-21T08:15:06;9.00;;;6.10;;
56581;SDS011;42463;52.214;21.238;2022-08-21T08:17:32;8.10;;;5.90;;
56581;SDS011;42463;52.214;21.238;2022-08-21T08:19:55;6.10;;;5.50;;
56581;SDS011;42463;52.214;21.238;2022-08-21T08:22:20;7.60;;;6.20;;
56581;SDS011;42463;52.214;21.238;2022-08-21T08:24:45;6.40;;;5.30;;
56581;SDS011;42463;52.214;21.238;2022-08-21T08:27:09;6.10;;;5.50;;
56581;SDS011;42463;52.214;21.238;2022-08-21T08:29:32;7.50;;;5.30;;
56581;SDS011;42463;52.214;21.238;2022-08-21T08:31:55;5.90;;;5.20;;
56581;SDS011;42463;52.214;21.238;2022-08-21T08:34:18;6.10;;;4.60;;
56581;SDS011;42463;52.214;21.238;2022-08-21T08:36:42;5.50;;;5.00;;
56581;SDS011;42463;52.214;21.238;2022-08-21T08:39:05;5.50;;;5.00;;
56581;SDS011;42463;52.214;21.238;2022-08-21T08:41:29;6.80;;;5.40;;
56581;SDS011;42463;52.214;21.238;2022-08-21T08:43:53;5.80;;;5.00;;
56581;SDS011;42463;52.214;21.238;2022-08-21T08:46:30;5.90;;;5.30;;
56581;SDS011;42463;52.214;21.238;2022-08-21T08:48:58;6.60;;;5.30;;
56581;SDS011;42463;52.214;21.238;2022-08-21T08:51:30;5.40;;;4.90;;
56581;SDS011;42463;52.214;21.238;2022-08-21T08:54:08;5.50;;;5.00;;
56581;SDS011;42463;52.214;21.238;2022-08-21T08:56:35;5.10;;;4.60;;
56581;SDS011;42463;52.214;21.238;2022-08-21T08:59:02;5.90;;;5.00;;
56581;SDS011;42463;52.214;21.238;2022-08-21T09:01:32;5.50;;;4.10;;
56581;SDS011;42463;52.214;21.238;2022-08-21T09:03:56;6.00;;;4.80;;
56581;SDS011;42463;52.214;21.238;2022-08-21T09:06:27;5.00;;;4.50;;
56581;SDS011;42463;52.214;21.238;2022-08-21T09:09:02;4.70;;;4.20;;
56581;SDS011;42463;52.214;21.238;2022-08-21T09:11:40;5.30;;;4.50;;
56581;SDS011;42463;52.214;21.238;2022-08-21T09:14:10;8.50;;;4.50;;
56581;SDS011;42463;52.214;21.238;2022-08-21T09:16:40;6.60;;;4.50;;
56581;SDS011;42463;52.214;21.238;2022-08-21T09:19:12;4.90;;;4.10;;
56581;SDS011;42463;52.214;21.238;2022-08-21T09:21:49;5.10;;;4.40;;
56581;SDS011;42463;52.214;21.238;2022-08-21T09:24:29;5.30;;;4.30;;
56581;SDS011;42463;52.214;21.238;2022-08-21T09:27:00;5.30;;;4.00;;
56581;SDS011;42463;52.214;21.238;2022-08-21T09:31:53;5.30;;;4.20;;
56581;SDS011;42463;52.214;21.238;2022-08-21T09:39:22;5.30;;;3.80;;
56581;SDS011;42463;52.214;21.238;2022-08-21T09:41:46;4.60;;;4.00;;
56581;SDS011;42463;52.214;21.238;2022-08-21T09:44:26;4.50;;;4.10;;
56581;SDS011;42463;52.214;21.238;2022-08-21T09:46:51;7.50;;;4.30;;
56581;SDS011;42463;52.214;21.238;2022-08-21T09:51:51;4.40;;;4.00;;
56581;SDS011;42463;52.214;21.238;2022-08-21T09:54:18;6.10;;;3.90;;
56581;SDS011;42463;52.214;21.238;2022-08-21T09:56:53;5.00;;;3.90;;
56581;SDS011;42463;52.214;21.238;2022-08-21T09:59:37;4.10;;;3.70;;
56581;SDS011;42463;52.214;21.238;2022-08-21T10:02:03;4.40;;;4.00;;
56581;SDS011;42463;52.214;21.238;2022-08-21T10:04:48;4.60;;;3.70;;
56581;SDS011;42463;52.214;21.238;2022-08-21T10:07:14;6.60;;;3.90;;
56581;SDS011;42463;52.214;21.238;2022-08-21T10:09:37;6.20;;;4.10;;
56581;SDS011;42463;52.214;21.238;2022-08-21T10:12:10;5.50;;;3.90;;
56581;SDS011;42463;52.214;21.238;2022-08-21T10:14:47;4.60;;;4.10;;
56581;SDS011;42463;52.214;21.238;2022-08-21T10:17:22;4.00;;;3.60;;
56581;SDS011;42463;52.214;21.238;2022-08-21T10:19:58;4.30;;;3.90;;
56581;SDS011;42463;52.214;21.238;2022-08-21T10:25:00;4.50;;;4.00;;
56581;SDS011;42463;52.214;21.238;2022-08-21T10:27:34;3.90;;;3.60;;
56581;SDS011;42463;52.214;21.238;2022-08-21T10:30:08;4.40;;;3.70;;
56581;SDS011;42463;52.214;21.238;2022-08-21T10:32:43;4.70;;;4.20;;
56581;SDS011;42463;52.214;21.238;2022-08-21T10:35:23;4.60;;;4.20;;
56581;SDS011;42463;52.214;21.238;2022-08-21T10:40:59;4.20;;;3.90;;
56581;SDS011;42463;52.214;21.238;2022-08-21T10:43:30;4.10;;;3.70;;
56581;SDS011;42463;52.214;21.238;2022-08-21T10:46:05;4.40;;;4.00;;
56581;SDS011;42463;52.214;21.238;2022-08-21T10:48:37;4.40;;;3.90;;
56581;SDS011;42463;52.214;21.238;2022-08-21T10:51:12;6.10;;;4.40;;
56581;SDS011;42463;52.214;21.238;2022-08-21T10:53:53;5.00;;;4.20;;
56581;SDS011;42463;52.214;21.238;2022-08-21T10:56:22;4.80;;;4.40;;
56581;SDS011;42463;52.214;21.238;2022-08-21T10:58:51;5.00;;;4.50;;
56581;SDS011;42463;52.214;21.238;2022-08-21T11:01:27;5.50;;;4.20;;
56581;SDS011;42463;52.214;21.238;2022-08-21T11:03:59;5.70;;;4.50;;
56581;SDS011;42463;52.214;21.238;2022-08-21T11:06:32;7.00;;;4.10;;
56581;SDS011;42463;52.214;21.238;2022-08-21T11:09:12;5.40;;;4.60;;
56581;SDS011;42463;52.214;21.238;2022-08-21T11:11:41;5.40;;;4.30;;
56581;SDS011;42463;52.214;21.238;2022-08-21T11:14:11;4.70;;;4.30;;
56581;SDS011;42463;52.214;21.238;2022-08-21T11:16:44;5.90;;;4.40;;
56581;SDS011;42463;52.214;21.238;2022-08-21T11:19:13;4.50;;;4.00;;
56581;SDS011;42463;52.214;21.238;2022-08-21T11:21:46;5.40;;;4.30;;
56581;SDS011;42463;52.214;21.238;2022-08-21T11:24:30;5.00;;;4.60;;
56581;SDS011;42463;52.214;21.238;2022-08-21T11:27:03;5.30;;;4.80;;
56581;SDS011;42463;52.214;21.238;2022-08-21T11:29:31;6.10;;;4.10;;
56581;SDS011;42463;52.214;21.238;2022-08-21T11:32:20;5.40;;;4.20;;
56581;SDS011;42463;52.214;21.238;2022-08-21T11:35:12;4.70;;;4.20;;
56581;SDS011;42463;52.214;21.238;2022-08-21T11:37:48;4.90;;;4.10;;
56581;SDS011;42463;52.214;21.238;2022-08-21T11:40:26;4.90;;;4.10;;
56581;SDS011;42463;52.214;21.238;2022-08-21T11:43:05;6.50;;;4.20;;
56581;SDS011;42463;52.214;21.238;2022-08-21T11:45:35;5.50;;;4.40;;
56581;SDS011;42463;52.214;21.238;2022-08-21T11:48:07;5.20;;;4.00;;
56581;SDS011;42463;52.214;21.238;2022-08-21T11:50:44;4.10;;;3.70;;
56581;SDS011;42463;52.214;21.238;2022-08-21T11:53:12;5.00;;;4.00;;
56581;SDS011;42463;52.214;21.238;2022-08-21T11:55:41;6.70;;;3.70;;
56581;SDS011;42463;52.214;21.238;2022-08-21T11:58:07;5.40;;;4.00;;
56581;SDS011;42463;52.214;21.238;2022-08-21T12:00:40;6.30;;;3.90;;
56581;SDS011;42463;52.214;21.238;2022-08-21T12:03:09;4.80;;;4.30;;
56581;SDS011;42463;52.214;21.238;2022-08-21T12:05:37;4.20;;;3.70;;
56581;SDS011;42463;52.214;21.238;2022-08-21T12:08:05;4.90;;;3.80;;
56581;SDS011;42463;52.214;21.238;2022-08-21T12:10:35;7.00;;;4.50;;
56581;SDS011;42463;52.214;21.238;2022-08-21T12:13:08;6.30;;;4.20;;
56581;SDS011;42463;52.214;21.238;2022-08-21T12:15:34;3.90;;;3.60;;
56581;SDS011;42463;52.214;21.238;2022-08-21T12:17:59;5.50;;;4.10;;
56581;SDS011;42463;52.214;21.238;2022-08-21T12:20:35;4.70;;;4.20;;
56581;SDS011;42463;52.214;21.238;2022-08-21T12:23:15;3.80;;;3.50;;
56581;SDS011;42463;52.214;21.238;2022-08-21T12:25:42;4.20;;;3.80;;
56581;SDS011;42463;52.214;21.238;2022-08-21T12:28:09;4.50;;;4.10;;
56581;SDS011;42463;52.214;21.238;2022-08-21T12:30:36;4.30;;;4.00;;
56581;SDS011;42463;52.214;21.238;2022-08-21T12:33:02;3.80;;;3.40;;
56581;SDS011;42463;52.214;21.238;2022-08-21T12:35:27;4.60;;;4.10;;
56581;SDS011;42463;52.214;21.238;2022-08-21T12:38:00;4.20;;;3.80;;
56581;SDS011;42463;52.214;21.238;2022-08-21T12:40:31;4.50;;;3.70;;
56581;SDS011;42463;52.214;21.238;2022-08-21T12:43:02;4.30;;;3.90;;
56581;SDS011;42463;52.214;21.238;2022-08-21T12:45:30;4.60;;;3.90;;
56581;SDS011;42463;52.214;21.238;2022-08-21T12:47:57;4.10;;;3.70;;
56581;SDS011;42463;52.214;21.238;2022-08-21T12:50:31;4.90;;;3.70;;
56581;SDS011;42463;52.214;21.238;2022-08-21T12:53:00;5.00;;;4.10;;
56581;SDS011;42463;52.214;21.238;2022-08-21T12:55:30;5.00;;;4.00;;
56581;SDS011;42463;52.214;21.238;2022-08-21T12:57:55;4.90;;;3.60;;
56581;SDS011;42463;52.214;21.238;2022-08-21T13:00:21;4.30;;;4.00;;
56581;SDS011;42463;52.214;21.238;2022-08-21T13:02:48;4.50;;;4.10;;
56581;SDS011;42463;52.214;21.238;2022-08-21T13:05:14;4.80;;;4.10;;
56581;SDS011;42463;52.214;21.238;2022-08-21T13:07:46;6.40;;;4.40;;
56581;SDS011;42463;52.214;21.238;2022-08-21T13:10:16;4.10;;;3.70;;
56581;SDS011;42463;52.214;21.238;2022-08-21T13:12:43;6.10;;;3.90;;
56581;SDS011;42463;52.214;21.238;2022-08-21T13:15:07;4.30;;;3.90;;
56581;SDS011;42463;52.214;21.238;2022-08-21T13:17:34;5.00;;;4.10;;
56581;SDS011;42463;52.214;21.238;2022-08-21T13:20:03;4.30;;;3.70;;
56581;SDS011;42463;52.214;21.238;2022-08-21T13:22:28;5.40;;;3.90;;
56581;SDS011;42463;52.214;21.238;2022-08-21T13:24:51;4.70;;;4.00;;
56581;SDS011;42463;52.214;21.238;2022-08-21T13:27:20;4.30;;;3.90;;
56581;SDS011;42463;52.214;21.238;2022-08-21T13:29:46;4.30;;;3.60;;
56581;SDS011;42463;52.214;21.238;2022-08-21T13:32:19;4.50;;;4.00;;
56581;SDS011;42463;52.214;21.238;2022-08-21T13:34:46;4.40;;;4.00;;
56581;SDS011;42463;52.214;21.238;2022-08-21T13:37:09;5.30;;;4.10;;
56581;SDS011;42463;52.214;21.238;2022-08-21T13:39:33;5.50;;;3.80;;
56581;SDS011;42463;52.214;21.238;2022-08-21T13:41:58;4.30;;;3.90;;
56581;SDS011;42463;52.214;21.238;2022-08-21T13:44:30;4.80;;;3.90;;
56581;SDS011;42463;52.214;21.238;2022-08-21T13:46:57;4.40;;;3.90;;
56581;SDS011;42463;52.214;21.238;2022-08-21T13:49:28;4.00;;;3.70;;
56581;SDS011;42463;52.214;21.238;2022-08-21T13:51:54;3.90;;;3.50;;
56581;SDS011;42463;52.214;21.238;2022-08-21T13:54:24;5.20;;;3.80;;
56581;SDS011;42463;52.214;21.238;2022-08-21T13:56:51;4.50;;;3.80;;
56581;SDS011;42463;52.214;21.238;2022-08-21T13:59:25;4.00;;;3.60;;
56581;SDS011;42463;52.214;21.238;2022-08-21T14:01:53;3.70;;;3.40;;
56581;SDS011;42463;52.214;21.238;2022-08-21T14:04:22;4.20;;;3.60;;
56581;SDS011;42463;52.214;21.238;2022-08-21T14:06:47;3.70;;;3.40;;
56581;SDS011;42463;52.214;21.238;2022-08-21T14:09:12;6.60;;;3.60;;
56581;SDS011;42463;52.214;21.238;2022-08-21T14:11:46;4.40;;;3.60;;
56581;SDS011;42463;52.214;21.238;2022-08-21T14:14:19;3.90;;;3.60;;
56581;SDS011;42463;52.214;21.238;2022-08-21T14:16:52;4.30;;;3.60;;
56581;SDS011;42463;52.214;21.238;2022-08-21T14:19:21;4.90;;;4.40;;
56581;SDS011;42463;52.214;21.238;2022-08-21T14:21:45;4.50;;;3.70;;
56581;SDS011;42463;52.214;21.238;2022-08-21T14:24:11;4.30;;;3.50;;
56581;SDS011;42463;52.214;21.238;2022-08-21T14:26:49;4.00;;;3.60;;
56581;SDS011;42463;52.214;21.238;2022-08-21T14:29:15;3.70;;;3.40;;
56581;SDS011;42463;52.214;21.238;2022-08-21T14:31:40;8.00;;;3.90;;
56581;SDS011;42463;52.214;21.238;2022-08-21T14:34:04;4.90;;;3.80;;
56581;SDS011;42463;52.214;21.238;2022-08-21T14:36:27;4.70;;;3.80;;
56581;SDS011;42463;52.214;21.238;2022-08-21T14:38:49;4.50;;;3.40;;
56581;SDS011;42463;52.214;21.238;2022-08-21T14:41:16;3.70;;;3.40;;
56581;SDS011;42463;52.214;21.238;2022-08-21T14:43:40;6.10;;;3.30;;
56581;SDS011;42463;52.214;21.238;2022-08-21T14:48:26;3.30;;;3.00;;
56581;SDS011;42463;52.214;21.238;2022-08-21T14:50:49;4.30;;;3.80;;
56581;SDS011;42463;52.214;21.238;2022-08-21T14:53:13;4.50;;;3.40;;
56581;SDS011;42463;52.214;21.238;2022-08-21T14:55:41;5.10;;;4.10;;
56581;SDS011;42463;52.214;21.238;2022-08-21T14:58:38;4.50;;;3.90;;
56581;SDS011;42463;52.214;21.238;2022-08-21T15:01:25;4.60;;;3.90;;
56581;SDS011;42463;52.214;21.238;2022-08-21T15:04:32;3.80;;;3.40;;
56581;SDS011;42463;52.214;21.238;2022-08-21T15:07:26;5.10;;;3.60;;
56581;SDS011;42463;52.214;21.238;2022-08-21T15:10:20;3.90;;;3.60;;
56581;SDS011;42463;52.214;21.238;2022-08-21T15:13:06;4.60;;;4.10;;
56581;SDS011;42463;52.214;21.238;2022-08-21T15:20:14;4.70;;;3.90;;
56581;SDS011;42463;52.214;21.238;2022-08-21T15:22:38;4.80;;;4.10;;
56581;SDS011;42463;52.214;21.238;2022-08-21T15:25:01;5.80;;;4.70;;
56581;SDS011;42463;52.214;21.238;2022-08-21T15:27:23;5.50;;;4.50;;
56581;SDS011;42463;52.214;21.238;2022-08-21T15:29:46;6.30;;;4.50;;